Time;durP1;ratioP1;P1;durP2;ratioP2;P2;SDS_P1;SDS_P2;PMS_P1;PMS_P2;Temp;Humidity;BMP_temperature;BMP_pressure;BME280_temperature;BME280_humidity;BME280_pressure;Samples;Min_cycle;Max_cycle;Signal;HPM_P1;HPM_P2
2022/06/14 00:01:04;;;;;;;13.88;4.18;;;13.00;99.90;;;;;;6332905;22;20036;-89
2022/06/14 00:03:37;;;;;;;16.08;4.63;;;13.00;99.90;;;;;;6305983;22;20339;-89
2022/06/14 00:06:15;;;;;;;11.45;3.90;;;12.90;99.90;;;;;;6306879;22;20028;-91
2022/06/14 00:08:41;;;;;;;14.93;4.57;;;;;;;;;;6334484;22;19998;-92
2022/06/14 00:11:13;;;;;;;14.18;4.20;;;12.90;99.90;;;;;;6306748;22;20002;-91
2022/06/14 00:13:39;;;;;;;17.33;4.03;;;;;;;;;;6306980;22;20086;-92
2022/06/14 00:16:05;;;;;;;12.43;4.22;;;12.70;99.90;;;;;;6306556;22;20018;-92
2022/06/14 00:18:31;;;;;;;19.70;4.68;;;;;;;;;;6306739;22;20040;-92
2022/06/14 00:20:58;;;;;;;11.85;4.18;;;;;;;;;;6334414;22;20342;-91
2022/06/14 00:23:24;;;;;;;10.82;4.32;;;;;;;;;;6335332;22;20073;-92
2022/06/14 00:25:54;;;;;;;9.63;3.92;;;12.70;99.90;;;;;;6334679;22;19998;-93
2022/06/14 00:28:21;;;;;;;13.70;3.90;;;12.60;99.90;;;;;;6336026;22;20010;-91
2022/06/14 00:30:52;;;;;;;13.63;4.40;;;12.60;99.90;;;;;;6336503;22;20432;-92
2022/06/14 00:33:18;;;;;;;21.35;4.10;;;;;;;;;;6308633;22;20010;-91
2022/06/14 00:35:45;;;;;;;11.15;3.80;;;;;;;;;;6335974;22;19998;-94
2022/06/14 00:38:12;;;;;;;11.32;3.63;;;12.50;99.90;;;;;;6336052;22;19999;-93
2022/06/14 00:40:40;;;;;;;12.27;3.70;;;12.50;99.90;;;;;;6336083;22;20003;-93
2022/06/14 00:43:17;;;;;;;17.15;3.90;;;12.40;99.90;;;;;;6335837;22;20003;-92
2022/06/14 00:45:43;;;;;;;11.10;3.93;;;;;;;;;;6336176;22;19995;-93
2022/06/14 00:48:14;;;;;;;11.20;3.70;;;12.30;99.90;;;;;;6308642;22;20010;-91
2022/06/14 00:50:47;;;;;;;11.73;4.70;;;12.30;99.90;;;;;;6308369;22;20013;-93
2022/06/14 00:53:19;;;;;;;14.85;3.97;;;12.30;99.90;;;;;;6335893;22;19995;-92
2022/06/14 00:55:52;;;;;;;17.17;4.30;;;12.20;99.90;;;;;;6335877;22;20338;-92
2022/06/14 00:58:24;;;;;;;18.17;4.68;;;12.20;99.90;;;;;;6308202;22;20003;-91
2022/06/14 01:01:01;;;;;;;12.40;4.47;;;12.10;99.90;;;;;;6335597;22;20007;-90
2022/06/14 01:03:34;;;;;;;10.32;4.20;;;12.10;99.90;;;;;;6336543;22;20003;-91
2022/06/14 01:06:09;;;;;;;16.73;4.72;;;12.10;99.90;;;;;;6335420;22;20006;-91
2022/06/14 01:08:56;;;;;;;14.20;4.05;;;12.00;99.90;;;;;;6308088;22;20003;-92
2022/06/14 01:11:40;;;;;;;14.18;4.25;;;12.10;99.90;;;;;;6335807;22;19999;-91
2022/06/14 01:14:09;;;;;;;15.27;6.20;;;12.00;99.90;;;;;;6335589;22;20003;-92
2022/06/14 01:16:35;;;;;;;12.43;4.18;;;12.00;99.90;;;;;;6335775;22;19994;-91
2022/06/14 01:19:01;;;;;;;11.95;4.53;;;;;;;;;;6335660;22;20010;-89
2022/06/14 01:21:28;;;;;;;11.27;4.22;;;12.10;99.90;;;;;;6336481;22;20003;-91
2022/06/14 01:23:54;;;;;;;12.73;3.88;;;12.10;99.90;;;;;;6308101;22;20007;-92
2022/06/14 01:26:23;;;;;;;13.85;4.30;;;12.00;99.90;;;;;;6335585;22;20322;-92
2022/06/14 01:28:57;;;;;;;11.77;3.80;;;12.00;99.90;;;;;;6307822;22;20010;-92
2022/06/14 01:31:24;;;;;;;9.65;3.63;;;12.10;99.90;;;;;;6335720;22;20320;-91
2022/06/14 01:33:56;;;;;;;8.27;3.80;;;12.00;99.90;;;;;;6335607;22;20378;-91
2022/06/14 01:36:30;;;;;;;13.15;3.65;;;12.10;99.90;;;;;;6307798;22;20003;-92
2022/06/14 01:38:59;;;;;;;9.23;3.92;;;12.10;99.90;;;;;;6335779;22;20007;-91
2022/06/14 01:41:39;;;;;;;23.48;4.97;;;11.90;99.90;;;;;;6307884;22;20093;-92
2022/06/14 01:44:22;;;;;;;15.23;3.92;;;11.90;99.90;;;;;;6308031;22;20005;-91
2022/06/14 01:47:21;;;;;;;10.93;4.22;;;11.80;99.90;;;;;;6308057;22;20446;-91
2022/06/14 01:53:07;;;;;;;9.07;3.72;;;12.00;99.90;;;;;;6335081;22;20041;-90
2022/06/14 01:55:34;;;;;;;18.08;4.55;;;;;;;;;;6335242;22;19999;-91
2022/06/14 01:58:26;;;;;;;16.42;4.28;;;11.80;99.90;;;;;;6335700;22;20455;-92
2022/06/14 02:01:05;;;;;;;13.43;4.47;;;11.40;99.90;;;;;;6318833;22;20223;-92
2022/06/14 02:06:42;;;;;;;14.00;4.07;;;11.40;99.90;;;;;;6334982;22;20006;-90
2022/06/14 02:09:21;;;;;;;12.00;3.85;;;14.00;99.90;;;;;;6306798;22;20467;-90
2022/06/14 02:11:47;;;;;;;8.85;3.65;;;;;;;;;;6307161;22;20435;-90
2022/06/14 02:14:32;;;;;;;10.55;3.88;;;11.40;99.90;;;;;;6334653;22;20076;-90
2022/06/14 02:17:09;;;;;;;12.40;3.90;;;11.50;99.90;;;;;;6307968;22;20006;-91
2022/06/14 02:19:44;;;;;;;9.90;4.22;;;11.40;99.90;;;;;;6334781;22;20435;-91
2022/06/14 02:22:32;;;;;;;12.02;4.22;;;11.30;99.90;;;;;;6334599;22;20007;-92
2022/06/14 02:25:17;;;;;;;12.77;4.50;;;11.30;99.90;;;;;;6306882;22;20324;-91
2022/06/14 02:27:57;;;;;;;13.90;4.78;;;11.30;99.90;;;;;;6334928;22;20003;-91
2022/06/14 02:30:35;;;;;;;13.55;3.90;;;11.30;99.90;;;;;;6307054;22;20435;-91
2022/06/14 02:33:20;;;;;;;9.10;4.13;;;11.20;99.90;;;;;;6307994;22;20034;-91
2022/06/14 02:36:17;;;;;;;14.35;4.88;;;11.30;99.90;;;;;;6307213;22;20059;-91
2022/06/14 02:38:44;;;;;;;10.45;3.80;;;11.20;99.90;;;;;;6307076;22;20013;-91
2022/06/14 02:41:17;;;;;;;9.48;3.95;;;8.00;99.90;;;;;;6334722;22;19999;-91
2022/06/14 02:44:07;;;;;;;11.88;3.85;;;11.30;99.90;;;;;;6307204;22;20073;-92
2022/06/14 02:46:59;;;;;;;14.70;4.00;;;11.50;99.90;;;;;;6314531;22;19999;-92
2022/06/14 02:49:38;;;;;;;9.40;3.72;;;11.60;99.90;;;;;;6275173;22;20010;-91
2022/06/14 02:52:04;;;;;;;13.20;3.97;;;;;;;;;;6335852;22;19999;-90
2022/06/14 02:54:37;;;;;;;11.77;4.00;;;11.30;99.90;;;;;;6335910;22;19998;-91
2022/06/14 02:57:53;;;;;;;15.45;3.88;;;11.20;99.90;;;;;;6335963;22;20001;-92
2022/06/14 03:00:28;;;;;;;13.20;4.20;;;11.30;99.90;;;;;;6179346;23;20012;-92
2022/06/14 03:02:55;;;;;;;8.90;3.60;;;;;;;;;;6179448;23;20013;-92
2022/06/14 03:05:37;;;;;;;15.70;4.40;;;11.20;99.90;;;;;;6235966;22;20073;-92
2022/06/14 03:08:24;;;;;;;18.10;4.47;;;11.00;99.90;;;;;;6307800;22;20003;-92
2022/06/14 03:11:14;;;;;;;7.63;3.80;;;11.10;99.90;;;;;;6306204;22;20007;-91
2022/06/14 03:14:07;;;;;;;10.43;3.83;;;11.10;99.90;;;;;;6334265;22;20230;-92
2022/06/14 03:16:48;;;;;;;10.90;3.65;;;11.10;99.90;;;;;;6334890;22;20331;-91
2022/06/14 03:19:22;;;;;;;10.63;3.92;;;10.90;99.90;;;;;;6333639;22;20006;-93
2022/06/14 03:21:52;;;;;;;12.98;4.40;;;11.00;99.90;;;;;;6333990;22;20010;-90
2022/06/14 03:25:02;;;;;;;12.20;4.50;;;11.00;99.90;;;;;;6305788;22;20435;-89
2022/06/14 03:27:50;;;;;;;11.82;4.55;;;10.90;99.90;;;;;;6178232;23;20009;-90
2022/06/14 03:30:45;;;;;;;10.02;4.28;;;10.80;99.90;;;;;;6178431;23;20090;-89
2022/06/14 03:33:23;;;;;;;9.85;3.75;;;10.90;99.90;;;;;;6279882;22;20043;-90
2022/06/14 03:35:52;;;;;;;7.00;4.00;;;12.10;99.90;;;;;;6334110;22;19995;-90
2022/06/14 03:38:33;;;;;;;12.90;4.28;;;10.90;99.90;;;;;;6306475;22;20378;-89
2022/06/14 03:40:59;;;;;;;12.77;3.90;;;;;;;;;;6306389;22;20038;-89
2022/06/14 03:43:26;;;;;;;9.10;3.88;;;13.70;99.90;;;;;;6333645;22;20320;-89
2022/06/14 03:46:14;;;;;;;11.35;3.85;;;10.70;99.90;;;;;;6306349;22;20385;-89
2022/06/14 03:48:43;;;;;;;9.02;3.65;;;10.70;99.90;;;;;;6306066;22;20029;-90
2022/06/14 03:51:47;;;;;;;7.97;3.92;;;10.80;99.90;;;;;;6306388;22;20013;-90
2022/06/14 03:54:13;;;;;;;12.27;4.00;;;;;;;;;;6333591;22;19995;-91
2022/06/14 03:56:47;;;;;;;8.93;4.00;;;10.80;99.90;;;;;;6305615;22;20018;-91
2022/06/14 03:59:20;;;;;;;9.85;3.58;;;10.70;99.90;;;;;;6334577;22;20002;-91
2022/06/14 04:02:52;;;;;;;8.30;3.90;;;10.70;99.90;;;;;;6307597;22;20465;-91
2022/06/14 04:05:21;;;;;;;10.93;3.22;;;10.70;99.90;;;;;;6230174;22;20438;-90
2022/06/14 04:07:56;;;;;;;9.52;3.67;;;10.70;99.90;;;;;;6335171;22;20006;-90
2022/06/14 04:10:51;;;;;;;11.10;3.67;;;10.80;99.90;;;;;;6308876;22;20022;-92
2022/06/14 04:13:40;;;;;;;6.53;3.50;;;10.80;99.90;;;;;;6336242;22;20023;-93
2022/06/14 04:16:20;;;;;;;10.75;4.03;;;10.80;99.90;;;;;;6310613;22;19999;-92
2022/06/14 04:19:10;;;;;;;9.93;3.83;;;10.80;99.90;;;;;;6308073;22;20466;-92
2022/06/14 04:21:55;;;;;;;13.65;3.60;;;10.70;99.90;;;;;;6336647;22;20511;-93
2022/06/14 04:24:33;;;;;;;10.88;3.72;;;10.80;99.90;;;;;;6307879;22;20380;-91
2022/06/14 04:27:09;;;;;;;7.10;3.45;;;10.90;99.90;;;;;;6308868;22;20026;-93
2022/06/14 04:29:53;;;;;;;13.13;3.80;;;10.70;99.90;;;;;;6309136;22;19995;-91
2022/06/14 04:32:28;;;;;;;12.43;4.65;;;10.60;99.90;;;;;;6307977;22;20370;-91
2022/06/14 04:35:16;;;;;;;7.50;3.60;;;10.50;99.90;;;;;;6335971;22;19995;-92
2022/06/14 04:37:45;;;;;;;;;;;10.50;99.90;;;;;;6308444;22;20005;-91
2022/06/14 04:40:16;;;;;;;10.00;4.03;;;10.40;99.90;;;;;;6336033;22;20322;-89
2022/06/14 04:42:56;;;;;;;9.32;3.75;;;10.30;99.90;;;;;;6334998;22;20006;-91
2022/06/14 04:45:40;;;;;;;11.27;4.03;;;10.40;99.90;;;;;;6335677;22;19999;-91
2022/06/14 04:48:28;;;;;;;8.20;3.92;;;10.60;99.90;;;;;;6336220;22;20003;-91
2022/06/14 04:51:05;;;;;;;7.13;3.47;;;10.50;99.90;;;;;;6335136;22;20002;-93
2022/06/14 04:54:04;;;;;;;6.93;3.45;;;10.80;99.90;;;;;;6307819;22;20018;-90
2022/06/14 04:56:47;;;;;;;9.80;3.88;;;11.00;99.90;;;;;;6318397;22;20465;-88
2022/06/14 04:59:17;;;;;;;7.95;3.70;;;11.00;99.90;;;;;;6306379;22;20026;-89
2022/06/14 05:01:45;;;;;;;9.93;3.83;;;10.90;99.90;;;;;;6307161;22;20107;-89
2022/06/14 05:04:23;;;;;;;8.82;3.90;;;10.60;99.90;;;;;;6307694;22;20006;-89
2022/06/14 05:07:08;;;;;;;8.07;3.70;;;10.80;99.90;;;;;;6334780;22;20018;-90
2022/06/14 05:09:40;;;;;;;8.20;4.00;;;11.00;99.90;;;;;;6306782;22;20002;-90
2022/06/14 05:12:30;;;;;;;10.48;3.70;;;10.90;99.90;;;;;;6334359;22;20022;-90
2022/06/14 05:15:32;;;;;;;10.82;4.22;;;10.90;99.90;;;;;;6306601;22;20030;-90
2022/06/14 05:17:58;;;;;;;7.03;4.15;;;;;;;;;;6334279;22;20085;-89
2022/06/14 05:20:35;;;;;;;18.00;4.55;;;8.30;99.90;;;;;;6307398;22;20010;-89
2022/06/14 05:23:01;;;;;;;7.30;4.32;;;;;;;;;;6306816;22;20026;-90
2022/06/14 05:25:40;;;;;;;16.55;4.50;;;10.90;99.90;;;;;;6306986;22;20343;-88
2022/06/14 05:28:09;;;;;;;;;;;10.80;99.90;;;;;;6307243;22;20423;-88
2022/06/14 05:31:10;;;;;;;16.02;4.45;;;10.70;99.90;;;;;;6306971;22;19899;-90
2022/06/14 05:34:03;;;;;;;12.75;4.20;;;11.00;99.90;;;;;;6306958;22;20006;-89
2022/06/14 05:37:03;;;;;;;7.72;4.10;;;11.40;99.90;;;;;;6334497;22;20439;-89
2022/06/14 05:39:51;;;;;;;12.85;4.20;;;11.40;99.90;;;;;;6262536;22;19999;-89
2022/06/14 05:42:21;;;;;;;11.57;4.00;;;11.50;99.90;;;;;;6334584;22;20010;-89
2022/06/14 05:44:51;;;;;;;10.07;3.83;;;11.40;99.90;;;;;;6334426;22;20013;-88
2022/06/14 05:47:41;;;;;;;11.88;4.13;;;11.60;99.90;;;;;;6334196;22;20010;-88
2022/06/14 05:50:13;;;;;;;10.95;4.32;;;11.80;99.90;;;;;;6334236;22;20077;-89
2022/06/14 05:52:42;;;;;;;9.73;3.67;;;12.00;99.90;;;;;;6335544;22;20406;-89
2022/06/14 05:55:32;;;;;;;7.90;3.35;;;12.30;99.90;;;;;;6334294;22;20008;-89
2022/06/14 05:58:10;;;;;;;9.85;3.55;;;12.50;99.90;;;;;;6333318;22;19999;-90
2022/06/14 06:00:45;;;;;;;10.25;3.08;;;12.80;99.90;;;;;;6306537;22;20007;-89
2022/06/14 06:03:40;;;;;;;7.25;3.17;;;13.00;99.90;;;;;;6307607;22;20458;-88
2022/06/14 06:06:16;;;;;;;10.35;3.20;;;13.10;99.90;;;;;;6301066;22;20003;-89
2022/06/14 06:08:48;;;;;;;9.00;3.15;;;13.40;99.90;;;;;;6335815;22;20065;-88
2022/06/14 06:11:22;;;;;;;13.95;3.80;;;13.30;99.90;;;;;;6335339;22;20021;-89
2022/06/14 06:14:09;;;;;;;8.05;2.90;;;13.60;99.90;;;;;;6334219;22;20086;-88
2022/06/14 06:17:04;;;;;;;9.85;3.10;;;13.70;99.90;;;;;;6334298;22;20307;-89
2022/06/14 06:19:35;;;;;;;8.70;3.10;;;13.80;99.90;;;;;;6306346;22;20014;-88
2022/06/14 06:22:20;;;;;;;14.35;3.05;;;14.00;99.90;;;;;;6334500;22;20082;-90
2022/06/14 06:24:59;;;;;;;8.77;2.95;;;14.10;99.90;;;;;;6334027;22;20053;-89
2022/06/14 06:27:34;;;;;;;13.65;3.25;;;14.20;99.90;;;;;;6306317;22;20409;-88
2022/06/14 06:30:27;;;;;;;7.88;3.22;;;14.40;99.90;;;;;;6306385;22;20007;-88
2022/06/14 06:32:55;;;;;;;8.85;3.25;;;14.60;99.90;;;;;;6333924;22;19998;-91
2022/06/14 06:35:26;;;;;;;12.05;3.00;;;14.80;99.90;;;;;;6334123;22;20003;-89
2022/06/14 06:38:15;;;;;;;11.27;3.20;;;14.90;99.90;;;;;;6334142;22;20052;-89
2022/06/14 06:41:49;;;;;;;7.05;3.00;;;15.10;99.90;;;;;;6307142;22;20006;-89
2022/06/14 06:43:34;;;;;;;10.95;3.28;;;15.20;99.90;;;;;;6333571;22;20006;-90
2022/06/14 06:46:01;;;;;;;12.25;3.17;;;15.40;99.90;;;;;;6334157;22;19999;-89
2022/06/14 06:48:39;;;;;;;16.70;3.00;;;15.70;99.90;;;;;;6306335;22;20086;-88
2022/06/14 06:51:12;;;;;;;11.77;2.97;;;15.70;99.90;;;;;;6306051;22;20100;-89
2022/06/14 06:53:49;;;;;;;15.52;3.53;;;15.90;99.90;;;;;;6306193;22;19998;-89
2022/06/14 06:56:29;;;;;;;6.82;3.20;;;16.00;99.90;;;;;;6335181;22;19999;-89
2022/06/14 06:58:57;;;;;;;11.32;3.45;;;16.10;99.90;;;;;;6305966;22;20002;-89
2022/06/14 07:01:25;;;;;;;11.35;3.20;;;16.10;99.90;;;;;;6333439;22;20052;-88
2022/06/14 07:05:03;;;;;;;7.57;3.20;;;16.20;99.90;;;;;;6333872;22;20081;-89
2022/06/14 07:07:38;;;;;;;15.85;3.20;;;16.20;99.90;;;;;;6333980;22;20048;-90
2022/06/14 07:10:34;;;;;;;11.55;3.55;;;16.40;99.90;;;;;;6277451;22;20332;-90
2022/06/14 07:13:21;;;;;;;11.35;3.30;;;16.50;99.90;;;;;;6333783;22;19995;-88
2022/06/14 07:16:18;;;;;;;10.38;3.20;;;16.50;99.90;;;;;;6306825;22;20002;-89
2022/06/14 07:18:48;;;;;;;9.57;3.08;;;16.70;99.90;;;;;;6334817;22;20002;-90
2022/06/14 07:21:23;;;;;;;10.88;3.05;;;16.80;99.90;;;;;;6306862;22;20015;-90
2022/06/14 07:24:03;;;;;;;9.13;3.15;;;16.90;99.90;;;;;;6333961;22;20331;-89
2022/06/14 07:26:44;;;;;;;10.90;2.88;;;17.00;99.90;;;;;;6305869;22;20026;-89
2022/06/14 07:29:22;;;;;;;10.45;3.00;;;17.10;99.90;;;;;;6333473;22;19995;-90
2022/06/14 07:32:13;;;;;;;9.73;3.08;;;17.20;99.90;;;;;;6306643;22;20090;-89
2022/06/14 07:34:40;;;;;;;10.80;3.40;;;17.30;99.90;;;;;;6333371;22;20002;-90
2022/06/14 07:37:15;;;;;;;11.70;3.25;;;17.40;99.90;;;;;;6333546;22;20370;-90
2022/06/14 07:39:54;;;;;;;11.30;2.97;;;17.50;99.90;;;;;;6305817;22;20030;-89
2022/06/14 07:42:30;;;;;;;14.60;3.10;;;17.60;99.90;;;;;;6333666;22;20045;-89
2022/06/14 07:45:13;;;;;;;8.25;3.20;;;17.60;99.90;;;;;;6333799;22;19995;-90
2022/06/14 07:48:15;;;;;;;10.57;3.10;;;17.70;99.90;;;;;;6305853;22;20433;-89
2022/06/14 07:51:02;;;;;;;9.48;3.08;;;18.30;99.90;;;;;;6280476;22;20006;-86
2022/06/14 07:53:55;;;;;;;10.88;3.42;;;18.00;99.90;;;;;;6305524;22;20435;-89
2022/06/14 07:56:30;;;;;;;10.38;3.13;;;18.10;99.90;;;;;;6333798;22;20454;-89
2022/06/14 07:59:01;;;;;;;15.88;3.45;;;18.20;99.90;;;;;;6333592;22;19999;-90
2022/06/14 08:01:34;;;;;;;16.20;3.15;;;18.30;99.90;;;;;;6333500;22;20003;-89
2022/06/14 08:04:22;;;;;;;11.48;3.20;;;18.40;99.90;;;;;;6333344;22;20423;-89
2022/06/14 08:06:56;;;;;;;9.02;3.05;;;18.60;99.90;;;;;;6334515;22;20013;-89
2022/06/14 08:09:33;;;;;;;16.60;3.15;;;18.60;99.90;;;;;;6333587;22;20006;-88
2022/06/14 08:12:01;;;;;;;17.77;3.38;;;18.80;99.90;;;;;;6305776;22;20029;-89
2022/06/14 08:14:36;;;;;;;;;;;18.80;99.90;;;;;;6333850;22;20049;-89
2022/06/14 08:17:08;;;;;;;10.38;3.13;;;19.20;99.90;;;;;;6306140;22;19985;-90
2022/06/14 08:19:42;;;;;;;8.18;3.10;;;19.20;99.90;;;;;;6304991;22;20014;-87
2022/06/14 08:22:12;;;;;;;9.20;2.95;;;19.40;99.90;;;;;;6332165;22;20014;-88
2022/06/14 08:24:51;;;;;;;13.73;3.03;;;20.30;99.90;;;;;;6304085;22;20003;-89
2022/06/14 08:27:25;;;;;;;10.02;3.13;;;19.80;99.90;;;;;;6305311;22;20007;-88
2022/06/14 08:29:57;;;;;;;11.88;3.15;;;20.00;99.90;;;;;;6332095;22;20070;-87
2022/06/14 08:32:45;;;;;;;8.10;3.03;;;19.90;99.90;;;;;;6332204;22;20002;-88
2022/06/14 08:35:12;;;;;;;11.68;3.47;;;19.80;99.90;;;;;;6332170;22;20007;-87
2022/06/14 08:37:53;;;;;;;9.25;3.08;;;19.70;99.90;;;;;;6302981;22;20151;-87
2022/06/14 08:40:33;;;;;;;9.85;2.90;;;19.90;99.90;;;;;;6305049;22;20410;-88
2022/06/14 08:43:08;;;;;;;18.65;3.40;;;20.10;99.90;;;;;;6332005;22;20014;-88
2022/06/14 08:45:57;;;;;;;9.10;3.17;;;20.30;99.90;;;;;;6332492;22;20005;-89
2022/06/14 08:48:24;;;;;;;15.20;3.00;;;;;;;;;;6305639;22;20080;-88
2022/06/14 08:51:10;;;;;;;14.68;3.30;;;20.40;99.90;;;;;;6334913;22;20005;-88
2022/06/14 08:53:51;;;;;;;12.53;3.63;;;20.50;99.90;;;;;;6333057;22;19994;-88
2022/06/14 08:56:26;;;;;;;15.73;4.03;;;20.60;99.90;;;;;;6335136;22;20011;-89
2022/06/14 08:59:25;;;;;;;11.70;3.10;;;20.30;99.90;;;;;;6333685;22;19998;-86
2022/06/14 09:02:32;;;;;;;12.90;3.50;;;20.30;99.90;;;;;;6333857;22;20385;-88
2022/06/14 09:05:06;;;;;;;13.18;3.40;;;20.60;99.90;;;;;;6281362;22;20065;-87
2022/06/14 09:07:56;;;;;;;15.05;3.53;;;20.90;99.90;;;;;;6333090;22;20010;-88
2022/06/14 09:10:42;;;;;;;10.75;3.40;;;21.00;99.90;;;;;;6333695;22;19999;-89
2022/06/14 09:13:28;;;;;;;19.95;3.25;;;21.20;99.90;;;;;;6306337;22;20339;-89
2022/06/14 09:16:22;;;;;;;13.55;3.28;;;21.40;99.90;;;;;;6229374;22;20125;-88
2022/06/14 09:19:14;;;;;;;13.25;3.25;;;21.40;99.90;;;;;;6334698;22;20006;-88
2022/06/14 09:21:49;;;;;;;11.77;3.88;;;21.30;99.90;;;;;;6305079;22;20015;-88
2022/06/14 09:24:26;;;;;;;11.38;3.20;;;21.20;99.90;;;;;;6306166;22;20082;-88
2022/06/14 09:27:30;;;;;;;11.60;3.25;;;21.40;99.90;;;;;;6306426;22;20094;-89
2022/06/14 09:30:07;;;;;;;8.13;3.05;;;21.50;97.00;;;;;;6307674;22;20009;-88
2022/06/14 09:33:09;;;;;;;14.10;3.20;;;21.40;95.80;;;;;;6306389;22;20033;-87
2022/06/14 09:35:42;;;;;;;10.65;2.88;;;21.40;98.00;;;;;;6333046;22;20454;-87
2022/06/14 09:38:26;;;;;;;9.70;2.72;;;21.50;99.90;;;;;;6332995;22;20016;-89
2022/06/14 09:41:13;;;;;;;22.38;3.10;;;21.70;97.50;;;;;;6333311;22;20393;-88
2022/06/14 09:43:39;;;;;;;8.95;3.05;;;;;;;;;;6333626;22;20007;-87
2022/06/14 09:46:20;;;;;;;8.13;2.95;;;21.40;98.00;;;;;;6334413;22;20037;-88
2022/06/14 09:49:12;;;;;;;19.73;3.22;;;21.60;98.70;;;;;;6335770;22;20006;-89
2022/06/14 09:52:10;;;;;;;12.68;3.20;;;21.50;94.80;;;;;;6334595;22;20002;-88
2022/06/14 09:54:55;;;;;;;9.63;2.92;;;21.60;97.70;;;;;;6236803;22;20081;-89
2022/06/14 09:57:51;;;;;;;16.75;3.63;;;21.90;98.40;;;;;;6335156;22;19995;-89
2022/06/14 10:00:16;;;;;;;11.63;2.95;;;21.20;93.40;;;;;;6199106;22;20012;-88
2022/06/14 10:02:55;;;;;;;16.05;3.20;;;22.20;95.20;;;;;;6334525;22;20086;-88
2022/06/14 10:05:46;;;;;;;9.15;2.90;;;22.30;99.90;;;;;;6335503;22;19999;-88
2022/06/14 10:08:49;;;;;;;12.35;3.20;;;21.70;96.30;;;;;;6333377;22;20572;-88
2022/06/14 10:11:31;;;;;;;7.88;2.63;;;22.40;92.40;;;;;;6333511;22;20009;-88
2022/06/14 10:14:16;;;;;;;15.95;2.63;;;22.20;84.20;;;;;;6305897;22;19999;-89
2022/06/14 10:16:53;;;;;;;16.98;3.13;;;21.10;95.30;;;;;;6333977;22;20003;-87
2022/06/14 10:19:48;;;;;;;11.35;3.15;;;22.40;92.30;;;;;;6307661;22;20010;-88
2022/06/14 10:22:48;;;;;;;11.40;3.25;;;22.10;81.80;;;;;;6305266;22;20025;-88
2022/06/14 10:25:22;;;;;;;13.15;2.88;;;22.10;83.70;;;;;;6271480;22;20366;-88
2022/06/14 10:28:13;;;;;;;5.20;2.60;;;22.30;90.90;;;;;;6333470;22;20013;-88
2022/06/14 10:30:47;;;;;;;10.43;3.30;;;22.70;92.20;;;;;;6331086;22;20027;-87
2022/06/14 10:33:43;;;;;;;9.07;3.22;;;22.70;81.80;;;;;;6306062;22;20361;-87
2022/06/14 10:36:42;;;;;;;6.47;3.00;;;22.90;88.70;;;;;;6333491;22;20009;-87
2022/06/14 10:39:17;;;;;;;11.60;3.38;;;22.90;75.00;;;;;;6334191;22;20439;-86
2022/06/14 10:42:06;;;;;;;10.27;2.58;;;22.80;84.00;;;;;;6306014;22;20060;-88
2022/06/14 10:44:58;;;;;;;11.52;2.92;;;22.70;69.90;;;;;;6332864;22;20010;-87
2022/06/14 10:47:31;;;;;;;11.90;2.90;;;22.70;83.20;;;;;;6306031;22;20002;-89
2022/06/14 10:50:16;;;;;;;7.97;2.80;;;22.70;82.70;;;;;;6333485;22;20018;-88
2022/06/14 10:52:54;;;;;;;5.88;2.55;;;22.70;76.80;;;;;;6332263;22;19998;-88
2022/06/14 10:55:44;;;;;;;14.88;3.15;;;22.70;79.10;;;;;;6334792;22;20026;-90
2022/06/14 10:58:15;;;;;;;13.43;3.42;;;22.90;84.50;;;;;;6306108;22;19999;-88
2022/06/14 11:01:08;;;;;;;10.80;2.95;;;23.00;79.60;;;;;;6306000;22;20003;-88
2022/06/14 11:03:57;;;;;;;7.18;2.42;;;23.10;91.30;;;;;;6332894;22;20036;-89
2022/06/14 11:07:03;;;;;;;8.55;2.63;;;23.00;72.70;;;;;;6332816;22;19998;-89
2022/06/14 11:09:44;;;;;;;10.32;2.60;;;23.00;85.10;;;;;;6332554;22;19998;-88
2022/06/14 11:12:26;;;;;;;11.48;3.42;;;23.00;75.80;;;;;;6305124;22;20444;-89
2022/06/14 11:15:13;;;;;;;10.38;3.00;;;23.00;76.70;;;;;;6305871;22;20412;-88
2022/06/14 11:17:59;;;;;;;10.48;2.90;;;25.50;88.20;;;;;;6332598;22;20446;-89
2022/06/14 11:20:41;;;;;;;13.02;2.72;;;;;;;;;;6332687;22;20435;-87
2022/06/14 11:23:18;;;;;;;10.45;2.92;;;23.10;71.10;;;;;;6304261;22;20011;-89
2022/06/14 11:26:07;;;;;;;8.70;2.72;;;23.20;70.20;;;;;;6332842;22;20074;-88
2022/06/14 11:29:06;;;;;;;7.40;2.45;;;23.20;77.90;;;;;;6332924;22;19999;-90
2022/06/14 11:31:47;;;;;;;6.45;2.50;;;23.30;76.80;;;;;;6332678;22;19995;-89
2022/06/14 11:34:39;;;;;;;6.43;2.60;;;23.30;65.70;;;;;;6332595;22;20003;-89
2022/06/14 11:37:28;;;;;;;9.85;2.83;;;23.30;66.90;;;;;;6331760;22;20002;-90
2022/06/14 11:40:01;;;;;;;8.95;2.70;;;23.40;78.40;;;;;;6332869;22;20034;-89
2022/06/14 11:42:50;;;;;;;11.32;3.00;;;23.60;65.20;;;;;;6332536;22;20040;-90
2022/06/14 11:45:29;;;;;;;9.52;2.58;;;23.50;67.80;;;;;;6332909;22;19999;-89
2022/06/14 11:47:56;;;;;;;6.95;2.70;;;;;;;;;;6332804;22;19998;-90
2022/06/14 11:50:45;;;;;;;10.40;2.67;;;23.70;69.80;;;;;;6306349;22;20025;-89
2022/06/14 11:53:39;;;;;;;9.70;2.63;;;23.70;70.40;;;;;;6332666;22;20312;-87
2022/06/14 11:56:22;;;;;;;11.70;2.47;;;23.50;65.10;;;;;;6333081;22;20002;-89
2022/06/14 11:59:11;;;;;;;11.30;3.08;;;23.60;72.50;;;;;;6305232;22;20011;-90
2022/06/14 12:01:58;;;;;;;14.40;2.75;;;23.40;71.90;;;;;;6305253;22;20454;-90
2022/06/14 12:04:37;;;;;;;7.35;2.45;;;23.60;66.50;;;;;;6333271;22;20006;-89
2022/06/14 12:07:28;;;;;;;10.40;2.70;;;23.00;69.10;;;;;;6304794;22;20007;-90
2022/06/14 12:10:34;;;;;;;7.88;2.40;;;23.70;65.70;;;;;;6333496;22;19999;-90
2022/06/14 12:13:16;;;;;;;7.18;2.60;;;23.40;68.90;;;;;;6304785;22;20086;-90
2022/06/14 12:16:03;;;;;;;4.80;2.35;;;23.50;66.30;;;;;;6304542;22;20006;-89
2022/06/14 12:18:33;;;;;;;8.00;2.80;;;23.70;72.40;;;;;;6332189;22;20003;-89
2022/06/14 12:21:21;;;;;;;6.40;2.10;;;23.90;68.80;;;;;;6332458;22;19998;-89
2022/06/14 12:23:53;;;;;;;7.95;2.47;;;24.00;65.80;;;;;;6335654;22;20013;-92
2022/06/14 12:26:40;;;;;;;4.90;2.40;;;23.70;71.60;;;;;;6306877;22;20006;-88
2022/06/14 12:29:36;;;;;;;6.07;2.13;;;24.00;69.20;;;;;;6333986;22;20316;-89
2022/06/14 12:32:34;;;;;;;5.85;2.33;;;24.00;71.20;;;;;;6306637;22;20338;-89
2022/06/14 12:35:19;;;;;;;5.28;2.45;;;24.30;70.70;;;;;;6333389;22;20006;-89
2022/06/14 12:37:54;;;;;;;6.40;2.60;;;24.30;66.60;;;;;;6333841;22;20431;-89
2022/06/14 12:40:35;;;;;;;7.65;2.50;;;24.30;64.60;;;;;;6307275;22;19999;-90
2022/06/14 12:43:27;;;;;;;4.88;2.30;;;24.20;61.10;;;;;;6334334;22;20067;-89
2022/06/14 12:45:53;;;;;;;6.68;2.55;;;;;;;;;;6307717;22;20006;-89
2022/06/14 12:48:26;;;;;;;6.53;2.35;;;23.60;52.70;;;;;;6333828;22;20026;-88
2022/06/14 12:51:08;;;;;;;7.68;2.30;;;24.30;56.30;;;;;;6334172;22;20006;-86
2022/06/14 12:53:40;;;;;;;7.32;2.80;;;24.30;56.30;;;;;;6333716;22;20327;-89
2022/06/14 12:56:36;;;;;;;9.27;2.50;;;24.40;59.90;;;;;;6305686;22;20030;-89
2022/06/14 12:59:12;;;;;;;6.78;2.40;;;24.30;61.10;;;;;;6333588;22;20003;-87
2022/06/14 13:01:52;;;;;;;8.38;2.50;;;24.50;53.80;;;;;;6334008;22;20078;-89
2022/06/14 13:04:18;;;;;;;9.65;2.42;;;;;;;;;;6306565;22;20007;-88
2022/06/14 13:07:09;;;;;;;6.40;2.33;;;24.40;46.30;;;;;;6305438;22;20087;-89
2022/06/14 13:09:54;;;;;;;8.65;2.40;;;24.50;49.00;;;;;;6333642;22;20003;-89
2022/06/14 13:12:19;;;;;;;7.32;2.47;;;24.60;52.30;;;;;;6306059;22;20037;-88
2022/06/14 13:15:07;;;;;;;9.15;2.75;;;24.60;48.70;;;;;;6333044;22;20573;-88
2022/06/14 13:17:58;;;;;;;8.02;2.83;;;24.60;53.40;;;;;;6333678;22;20042;-90
2022/06/14 13:21:18;;;;;;;5.90;2.40;;;24.60;59.50;;;;;;6334763;22;20006;-91
2022/06/14 13:23:53;;;;;;;6.13;2.30;;;24.80;50.00;;;;;;6178346;23;20012;-90
2022/06/14 13:26:22;;;;;;;8.90;2.70;;;24.50;51.60;;;;;;6284352;22;20396;-90
2022/06/14 13:29:01;;;;;;;7.60;2.42;;;24.60;54.00;;;;;;6333808;22;19994;-88
2022/06/14 13:31:48;;;;;;;8.30;2.65;;;24.80;46.40;;;;;;6333758;22;20078;-89
2022/06/14 13:34:25;;;;;;;12.07;2.43;;;24.80;52.10;;;;;;6333644;22;20056;-90
2022/06/14 13:37:26;;;;;;;;;;;24.90;59.80;;;;;;6335254;22;20083;-89
2022/06/14 13:40:12;;;;;;;9.65;2.95;;;24.90;51.70;;;;;;6178874;23;19900;-90
2022/06/14 13:42:50;;;;;;;11.65;2.40;;;24.80;55.90;;;;;;6323240;22;20068;-89
2022/06/14 13:45:38;;;;;;;8.52;2.53;;;25.20;52.50;;;;;;6306218;22;20298;-89
2022/06/14 13:48:16;;;;;;;6.75;2.45;;;25.20;57.70;;;;;;6305477;22;20033;-89
2022/06/14 13:51:06;;;;;;;6.63;2.47;;;25.20;50.70;;;;;;6332941;22;20443;-89
2022/06/14 13:53:39;;;;;;;5.93;2.30;;;25.20;54.00;;;;;;6333171;22;19995;-89
2022/06/14 13:56:19;;;;;;;11.63;2.72;;;25.30;51.20;;;;;;6334363;22;20343;-88
2022/06/14 13:59:02;;;;;;;8.20;2.50;;;25.20;49.70;;;;;;6306539;22;19999;-89
2022/06/14 14:01:46;;;;;;;7.20;2.60;;;25.30;50.50;;;;;;6334403;22;20007;-90
2022/06/14 14:04:49;;;;;;;7.32;2.33;;;25.50;57.50;;;;;;6306909;22;20010;-90
2022/06/14 14:07:44;;;;;;;8.40;2.40;;;26.00;51.10;;;;;;6334602;22;19999;-90